sensor_id;sensor_type;location;lat;lon;timestamp;P1;durP1;ratioP1;P2;durP2;ratioP2
78443;SDS011;67739;52.986;8.894;2023-04-24T00:55:29;1.08;;;0.20;;
78443;SDS011;67739;52.986;8.894;2023-04-24T01:12:19;0.70;;;0.22;;
78443;SDS011;67739;52.986;8.894;2023-04-24T01:48:34;0.00;;;0.00;;
78443;SDS011;67739;52.986;8.894;2023-04-24T01:51:17;0.55;;;0.10;;
78443;SDS011;67739;52.986;8.894;2023-04-24T02:05:43;1.15;;;0.15;;
78443;SDS011;67739;52.986;8.894;2023-04-24T02:08:10;0.57;;;0.17;;
78443;SDS011;67739;52.986;8.894;2023-04-24T02:14:36;0.45;;;0.13;;
78443;SDS011;67739;52.986;8.894;2023-04-24T02:22:24;0.52;;;0.20;;
78443;SDS011;67739;52.986;8.894;2023-04-24T02:29:07;0.35;;;0.00;;
78443;SDS011;67739;52.986;8.894;2023-04-24T02:35:03;0.40;;;0.17;;
78443;SDS011;67739;52.986;8.894;2023-04-24T02:43:25;0.38;;;0.20;;
78443;SDS011;67739;52.986;8.894;2023-04-24T02:49:06;0.10;;;0.00;;
78443;SDS011;67739;52.986;8.894;2023-04-24T02:58:36;0.43;;;0.17;;
78443;SDS011;67739;52.986;8.894;2023-04-24T03:01:07;0.40;;;0.10;;
78443;SDS011;67739;52.986;8.894;2023-04-24T03:09:36;0.52;;;0.20;;
78443;SDS011;67739;52.986;8.894;2023-04-24T03:38:30;0.10;;;0.00;;
78443;SDS011;67739;52.986;8.894;2023-04-24T03:40:58;0.80;;;0.20;;
78443;SDS011;67739;52.986;8.894;2023-04-24T03:44:07;0.80;;;0.10;;
78443;SDS011;67739;52.986;8.894;2023-04-24T03:49:48;0.00;;;0.00;;
78443;SDS011;67739;52.986;8.894;2023-04-24T03:59:30;0.00;;;0.00;;
78443;SDS011;67739;52.986;8.894;2023-04-24T04:01:58;0.00;;;0.00;;
78443;SDS011;67739;52.986;8.894;2023-04-24T04:07:47;0.63;;;0.10;;
78443;SDS011;67739;52.986;8.894;2023-04-24T04:10:13;0.00;;;0.00;;
78443;SDS011;67739;52.986;8.894;2023-04-24T04:12:39;0.90;;;0.50;;
78443;SDS011;67739;52.986;8.894;2023-04-24T04:15:07;0.25;;;0.10;;
78443;SDS011;67739;52.986;8.894;2023-04-24T04:17:50;0.50;;;0.10;;
78443;SDS011;67739;52.986;8.894;2023-04-24T04:23:38;0.52;;;0.15;;
78443;SDS011;67739;52.986;8.894;2023-04-24T04:28:59;0.00;;;0.00;;
78443;SDS011;67739;52.986;8.894;2023-04-24T04:31:28;0.15;;;0.00;;
78443;SDS011;67739;52.986;8.894;2023-04-24T04:33:53;0.08;;;0.00;;
78443;SDS011;67739;52.986;8.894;2023-04-24T04:42:37;0.90;;;0.30;;
78443;SDS011;67739;52.986;8.894;2023-04-24T04:50:20;0.20;;;0.08;;
78443;SDS011;67739;52.986;8.894;2023-04-24T04:52:53;0.17;;;0.10;;
78443;SDS011;67739;52.986;8.894;2023-04-24T04:55:21;0.30;;;0.20;;
78443;SDS011;67739;52.986;8.894;2023-04-24T05:02:03;0.45;;;0.10;;
78443;SDS011;67739;52.986;8.894;2023-04-24T05:05:07;1.40;;;0.47;;
78443;SDS011;67739;52.986;8.894;2023-04-24T05:07:53;1.75;;;0.77;;
78443;SDS011;67739;52.986;8.894;2023-04-24T05:10:19;1.20;;;0.30;;
78443;SDS011;67739;52.986;8.894;2023-04-24T05:15:35;0.75;;;0.15;;
78443;SDS011;67739;52.986;8.894;2023-04-24T05:33:15;0.75;;;0.10;;
78443;SDS011;67739;52.986;8.894;2023-04-24T05:35:41;3.03;;;0.50;;
78443;SDS011;67739;52.986;8.894;2023-04-24T05:38:11;1.65;;;0.20;;
78443;SDS011;67739;52.986;8.894;2023-04-24T05:40:37;1.73;;;0.40;;
78443;SDS011;67739;52.986;8.894;2023-04-24T05:43:02;1.58;;;0.68;;
78443;SDS011;67739;52.986;8.894;2023-04-24T05:45:27;1.33;;;0.43;;
78443;SDS011;67739;52.986;8.894;2023-04-24T05:47:53;1.00;;;0.38;;
78443;SDS011;67739;52.986;8.894;2023-04-24T05:50:18;1.50;;;0.73;;
78443;SDS011;67739;52.986;8.894;2023-04-24T05:52:44;1.42;;;0.50;;
78443;SDS011;67739;52.986;8.894;2023-04-24T05:55:09;1.58;;;0.30;;
78443;SDS011;67739;52.986;8.894;2023-04-24T05:57:35;1.70;;;0.60;;
78443;SDS011;67739;52.986;8.894;2023-04-24T06:00:00;1.65;;;0.77;;
78443;SDS011;67739;52.986;8.894;2023-04-24T06:02:25;1.65;;;0.52;;
78443;SDS011;67739;52.986;8.894;2023-04-24T06:04:51;0.30;;;0.10;;
78443;SDS011;67739;52.986;8.894;2023-04-24T06:07:16;1.95;;;0.95;;
78443;SDS011;67739;52.986;8.894;2023-04-24T06:09:42;1.30;;;0.47;;
78443;SDS011;67739;52.986;8.894;2023-04-24T06:12:07;2.40;;;0.50;;
78443;SDS011;67739;52.986;8.894;2023-04-24T06:14:33;4.85;;;1.48;;
78443;SDS011;67739;52.986;8.894;2023-04-24T06:16:59;5.03;;;2.03;;
78443;SDS011;67739;52.986;8.894;2023-04-24T06:19:25;3.55;;;1.23;;
78443;SDS011;67739;52.986;8.894;2023-04-24T06:21:50;2.53;;;1.15;;
78443;SDS011;67739;52.986;8.894;2023-04-24T06:24:15;0.98;;;0.47;;
78443;SDS011;67739;52.986;8.894;2023-04-24T06:26:41;3.08;;;0.93;;
78443;SDS011;67739;52.986;8.894;2023-04-24T06:29:07;2.08;;;0.95;;
78443;SDS011;67739;52.986;8.894;2023-04-24T06:31:32;3.50;;;1.48;;
78443;SDS011;67739;52.986;8.894;2023-04-24T06:34:01;2.38;;;0.85;;
78443;SDS011;67739;52.986;8.894;2023-04-24T06:36:27;2.58;;;0.95;;
78443;SDS011;67739;52.986;8.894;2023-04-24T06:38:53;3.13;;;1.20;;
78443;SDS011;67739;52.986;8.894;2023-04-24T06:41:19;2.42;;;0.65;;
78443;SDS011;67739;52.986;8.894;2023-04-24T06:43:44;3.97;;;1.00;;
78443;SDS011;67739;52.986;8.894;2023-04-24T06:46:10;3.88;;;1.10;;
78443;SDS011;67739;52.986;8.894;2023-04-24T06:48:35;2.47;;;0.57;;
78443;SDS011;67739;52.986;8.894;2023-04-24T06:51:00;3.92;;;1.52;;
78443;SDS011;67739;52.986;8.894;2023-04-24T06:53:26;4.20;;;1.42;;
78443;SDS011;67739;52.986;8.894;2023-04-24T06:55:52;3.55;;;1.08;;
78443;SDS011;67739;52.986;8.894;2023-04-24T06:58:17;4.35;;;1.90;;
78443;SDS011;67739;52.986;8.894;2023-04-24T07:00:43;9.07;;;2.03;;
78443;SDS011;67739;52.986;8.894;2023-04-24T07:03:08;3.97;;;0.95;;
78443;SDS011;67739;52.986;8.894;2023-04-24T07:05:33;4.30;;;1.63;;
78443;SDS011;67739;52.986;8.894;2023-04-24T07:08:00;3.30;;;1.75;;
78443;SDS011;67739;52.986;8.894;2023-04-24T07:10:26;3.95;;;1.55;;
78443;SDS011;67739;52.986;8.894;2023-04-24T07:12:53;4.60;;;1.75;;
78443;SDS011;67739;52.986;8.894;2023-04-24T07:15:19;3.67;;;1.27;;
78443;SDS011;67739;52.986;8.894;2023-04-24T07:17:44;3.40;;;1.48;;
78443;SDS011;67739;52.986;8.894;2023-04-24T07:20:10;3.00;;;1.30;;
78443;SDS011;67739;52.986;8.894;2023-04-24T07:22:37;3.38;;;1.42;;
78443;SDS011;67739;52.986;8.894;2023-04-24T07:25:03;7.22;;;3.20;;
78443;SDS011;67739;52.986;8.894;2023-04-24T07:27:29;4.88;;;1.67;;
78443;SDS011;67739;52.986;8.894;2023-04-24T07:29:55;4.22;;;2.00;;
78443;SDS011;67739;52.986;8.894;2023-04-24T07:32:20;2.97;;;1.20;;
78443;SDS011;67739;52.986;8.894;2023-04-24T07:34:45;4.03;;;1.98;;
78443;SDS011;67739;52.986;8.894;2023-04-24T07:37:11;4.85;;;1.83;;
78443;SDS011;67739;52.986;8.894;2023-04-24T07:39:36;4.80;;;1.63;;
78443;SDS011;67739;52.986;8.894;2023-04-24T07:42:02;5.38;;;2.45;;
78443;SDS011;67739;52.986;8.894;2023-04-24T07:44:27;4.68;;;1.98;;
78443;SDS011;67739;52.986;8.894;2023-04-24T07:46:52;4.90;;;1.67;;
78443;SDS011;67739;52.986;8.894;2023-04-24T07:49:18;2.55;;;0.73;;
78443;SDS011;67739;52.986;8.894;2023-04-24T07:51:44;4.15;;;1.15;;
78443;SDS011;67739;52.986;8.894;2023-04-24T07:54:10;4.68;;;1.77;;
78443;SDS011;67739;52.986;8.894;2023-04-24T07:56:37;2.88;;;1.48;;
78443;SDS011;67739;52.986;8.894;2023-04-24T07:59:06;3.53;;;1.30;;
78443;SDS011;67739;52.986;8.894;2023-04-24T08:01:32;3.78;;;1.33;;
78443;SDS011;67739;52.986;8.894;2023-04-24T08:03:57;4.55;;;2.22;;
78443;SDS011;67739;52.986;8.894;2023-04-24T08:06:22;3.33;;;1.25;;
78443;SDS011;67739;52.986;8.894;2023-04-24T08:08:48;3.50;;;1.25;;
78443;SDS011;67739;52.986;8.894;2023-04-24T08:11:14;4.28;;;1.30;;
78443;SDS011;67739;52.986;8.894;2023-04-24T08:13:39;3.10;;;1.13;;
78443;SDS011;67739;52.986;8.894;2023-04-24T08:16:04;3.08;;;1.63;;
78443;SDS011;67739;52.986;8.894;2023-04-24T08:18:30;3.63;;;1.05;;
78443;SDS011;67739;52.986;8.894;2023-04-24T08:20:55;3.85;;;1.08;;
78443;SDS011;67739;52.986;8.894;2023-04-24T08:23:26;5.13;;;1.27;;
78443;SDS011;67739;52.986;8.894;2023-04-24T08:25:51;4.40;;;1.67;;
78443;SDS011;67739;52.986;8.894;2023-04-24T08:28:17;4.07;;;1.45;;
78443;SDS011;67739;52.986;8.894;2023-04-24T08:30:45;3.35;;;1.73;;
78443;SDS011;67739;52.986;8.894;2023-04-24T08:33:12;3.20;;;1.20;;
78443;SDS011;67739;52.986;8.894;2023-04-24T08:35:37;3.67;;;1.27;;
78443;SDS011;67739;52.986;8.894;2023-04-24T08:38:03;4.95;;;1.42;;
78443;SDS011;67739;52.986;8.894;2023-04-24T08:40:29;5.50;;;2.28;;
78443;SDS011;67739;52.986;8.894;2023-04-24T08:42:57;3.03;;;1.55;;
78443;SDS011;67739;52.986;8.894;2023-04-24T08:45:24;4.13;;;1.42;;
78443;SDS011;67739;52.986;8.894;2023-04-24T08:47:50;3.13;;;1.70;;
78443;SDS011;67739;52.986;8.894;2023-04-24T08:50:18;4.28;;;1.65;;
78443;SDS011;67739;52.986;8.894;2023-04-24T08:52:43;3.35;;;1.80;;
78443;SDS011;67739;52.986;8.894;2023-04-24T08:55:09;4.57;;;1.70;;
78443;SDS011;67739;52.986;8.894;2023-04-24T08:57:34;4.70;;;1.95;;
78443;SDS011;67739;52.986;8.894;2023-04-24T09:00:01;4.35;;;1.90;;
78443;SDS011;67739;52.986;8.894;2023-04-24T09:02:26;7.63;;;3.08;;
78443;SDS011;67739;52.986;8.894;2023-04-24T09:04:52;5.53;;;2.25;;
78443;SDS011;67739;52.986;8.894;2023-04-24T09:07:19;6.20;;;2.47;;
78443;SDS011;67739;52.986;8.894;2023-04-24T09:09:45;5.80;;;1.70;;
78443;SDS011;67739;52.986;8.894;2023-04-24T09:12:10;5.03;;;2.33;;
78443;SDS011;67739;52.986;8.894;2023-04-24T09:14:36;4.28;;;2.13;;
78443;SDS011;67739;52.986;8.894;2023-04-24T09:17:04;5.00;;;2.20;;
78443;SDS011;67739;52.986;8.894;2023-04-24T09:19:31;5.35;;;2.30;;
78443;SDS011;67739;52.986;8.894;2023-04-24T09:21:56;5.03;;;2.10;;
78443;SDS011;67739;52.986;8.894;2023-04-24T09:24:22;4.63;;;2.63;;
78443;SDS011;67739;52.986;8.894;2023-04-24T09:26:48;5.38;;;1.90;;
78443;SDS011;67739;52.986;8.894;2023-04-24T09:29:20;5.07;;;2.25;;
78443;SDS011;67739;52.986;8.894;2023-04-24T09:31:45;7.75;;;2.58;;
78443;SDS011;67739;52.986;8.894;2023-04-24T09:34:11;3.72;;;1.77;;
78443;SDS011;67739;52.986;8.894;2023-04-24T09:36:41;5.20;;;2.55;;
78443;SDS011;67739;52.986;8.894;2023-04-24T09:39:11;3.67;;;1.02;;
78443;SDS011;67739;52.986;8.894;2023-04-24T09:44:20;2.70;;;0.95;;
78443;SDS011;67739;52.986;8.894;2023-04-24T09:46:51;5.65;;;1.15;;
78443;SDS011;67739;52.986;8.894;2023-04-24T09:49:22;6.30;;;2.85;;
78443;SDS011;67739;52.986;8.894;2023-04-24T09:51:51;4.40;;;1.92;;
78443;SDS011;67739;52.986;8.894;2023-04-24T09:54:18;2.50;;;1.02;;
78443;SDS011;67739;52.986;8.894;2023-04-24T09:56:48;6.72;;;3.20;;
78443;SDS011;67739;52.986;8.894;2023-04-24T09:59:15;3.72;;;1.48;;
78443;SDS011;67739;52.986;8.894;2023-04-24T10:01:42;5.13;;;2.10;;
78443;SDS011;67739;52.986;8.894;2023-04-24T10:04:19;5.75;;;2.63;;
78443;SDS011;67739;52.986;8.894;2023-04-24T10:06:47;3.05;;;1.35;;
78443;SDS011;67739;52.986;8.894;2023-04-24T10:09:14;5.35;;;2.70;;
78443;SDS011;67739;52.986;8.894;2023-04-24T10:11:50;3.67;;;1.45;;
78443;SDS011;67739;52.986;8.894;2023-04-24T10:14:19;2.33;;;1.15;;
78443;SDS011;67739;52.986;8.894;2023-04-24T10:16:48;5.18;;;1.90;;
78443;SDS011;67739;52.986;8.894;2023-04-24T10:19:17;6.07;;;2.35;;
78443;SDS011;67739;52.986;8.894;2023-04-24T10:21:46;4.32;;;1.35;;
78443;SDS011;67739;52.986;8.894;2023-04-24T10:24:18;4.78;;;2.20;;
78443;SDS011;67739;52.986;8.894;2023-04-24T10:26:47;3.33;;;1.20;;
78443;SDS011;67739;52.986;8.894;2023-04-24T10:29:16;4.50;;;1.50;;
78443;SDS011;67739;52.986;8.894;2023-04-24T10:31:42;3.47;;;1.75;;
78443;SDS011;67739;52.986;8.894;2023-04-24T10:34:10;2.15;;;0.90;;
78443;SDS011;67739;52.986;8.894;2023-04-24T10:36:37;3.63;;;1.83;;
78443;SDS011;67739;52.986;8.894;2023-04-24T10:39:08;4.32;;;1.45;;
78443;SDS011;67739;52.986;8.894;2023-04-24T10:41:38;2.80;;;1.23;;
78443;SDS011;67739;52.986;8.894;2023-04-24T10:44:05;3.67;;;1.55;;
78443;SDS011;67739;52.986;8.894;2023-04-24T10:46:32;3.35;;;1.02;;
78443;SDS011;67739;52.986;8.894;2023-04-24T10:48:58;3.88;;;1.48;;
78443;SDS011;67739;52.986;8.894;2023-04-24T10:51:24;2.97;;;1.35;;
78443;SDS011;67739;52.986;8.894;2023-04-24T10:54:27;3.30;;;1.13;;
78443;SDS011;67739;52.986;8.894;2023-04-24T10:59:44;4.53;;;1.38;;
78443;SDS011;67739;52.986;8.894;2023-04-24T11:02:10;3.38;;;1.27;;
78443;SDS011;67739;52.986;8.894;2023-04-24T11:04:39;1.35;;;0.55;;
78443;SDS011;67739;52.986;8.894;2023-04-24T11:07:04;2.25;;;0.70;;
78443;SDS011;67739;52.986;8.894;2023-04-24T11:09:30;2.67;;;0.77;;
78443;SDS011;67739;52.986;8.894;2023-04-24T11:12:06;2.67;;;0.90;;
78443;SDS011;67739;52.986;8.894;2023-04-24T11:17:34;2.35;;;0.70;;
78443;SDS011;67739;52.986;8.894;2023-04-24T11:20:11;3.60;;;1.13;;
78443;SDS011;67739;52.986;8.894;2023-04-24T11:22:41;3.88;;;1.27;;
78443;SDS011;67739;52.986;8.894;2023-04-24T11:25:06;4.25;;;1.63;;
78443;SDS011;67739;52.986;8.894;2023-04-24T11:27:40;4.13;;;1.48;;
78443;SDS011;67739;52.986;8.894;2023-04-24T11:30:07;2.45;;;0.68;;
78443;SDS011;67739;52.986;8.894;2023-04-24T11:37:24;2.80;;;0.77;;
78443;SDS011;67739;52.986;8.894;2023-04-24T11:39:53;2.35;;;0.73;;
78443;SDS011;67739;52.986;8.894;2023-04-24T11:42:20;3.00;;;1.00;;
78443;SDS011;67739;52.986;8.894;2023-04-24T11:44:47;2.10;;;0.70;;
78443;SDS011;67739;52.986;8.894;2023-04-24T11:47:14;2.88;;;0.93;;
78443;SDS011;67739;52.986;8.894;2023-04-24T11:49:39;2.60;;;0.65;;
78443;SDS011;67739;52.986;8.894;2023-04-24T11:52:04;2.33;;;0.85;;
78443;SDS011;67739;52.986;8.894;2023-04-24T11:54:30;3.05;;;1.00;;
78443;SDS011;67739;52.986;8.894;2023-04-24T11:56:56;2.42;;;0.77;;
78443;SDS011;67739;52.986;8.894;2023-04-24T11:59:22;2.63;;;0.93;;
78443;SDS011;67739;52.986;8.894;2023-04-24T12:01:48;2.17;;;0.95;;
78443;SDS011;67739;52.986;8.894;2023-04-24T12:04:15;1.75;;;0.63;;
78443;SDS011;67739;52.986;8.894;2023-04-24T12:12:15;3.28;;;0.93;;
78443;SDS011;67739;52.986;8.894;2023-04-24T12:14:46;2.80;;;0.60;;
78443;SDS011;67739;52.986;8.894;2023-04-24T12:17:17;1.52;;;0.73;;
78443;SDS011;67739;52.986;8.894;2023-04-24T12:19:48;2.55;;;0.70;;
78443;SDS011;67739;52.986;8.894;2023-04-24T12:22:14;2.17;;;0.40;;
78443;SDS011;67739;52.986;8.894;2023-04-24T12:24:59;2.45;;;1.00;;
78443;SDS011;67739;52.986;8.894;2023-04-24T12:27:29;2.50;;;0.60;;
78443;SDS011;67739;52.986;8.894;2023-04-24T12:29:56;1.15;;;0.30;;
78443;SDS011;67739;52.986;8.894;2023-04-24T12:32:22;0.32;;;0.10;;
78443;SDS011;67739;52.986;8.894;2023-04-24T12:34:50;1.35;;;0.40;;
78443;SDS011;67739;52.986;8.894;2023-04-24T12:37:16;1.60;;;0.30;;
78443;SDS011;67739;52.986;8.894;2023-04-24T12:42:47;0.90;;;0.17;;
78443;SDS011;67739;52.986;8.894;2023-04-24T12:45:14;2.95;;;0.35;;
78443;SDS011;67739;52.986;8.894;2023-04-24T12:47:40;3.45;;;0.88;;
78443;SDS011;67739;52.986;8.894;2023-04-24T12:50:08;2.13;;;0.65;;
78443;SDS011;67739;52.986;8.894;2023-04-24T12:52:34;2.67;;;0.90;;
78443;SDS011;67739;52.986;8.894;2023-04-24T12:55:00;0.88;;;0.30;;
78443;SDS011;67739;52.986;8.894;2023-04-24T12:57:26;1.40;;;0.43;;
78443;SDS011;67739;52.986;8.894;2023-04-24T12:59:54;0.60;;;0.20;;
78443;SDS011;67739;52.986;8.894;2023-04-24T13:02:21;1.30;;;0.30;;
78443;SDS011;67739;52.986;8.894;2023-04-24T13:04:47;0.68;;;0.15;;
78443;SDS011;67739;52.986;8.894;2023-04-24T13:07:13;2.78;;;0.80;;
78443;SDS011;67739;52.986;8.894;2023-04-24T13:09:39;1.27;;;0.50;;
78443;SDS011;67739;52.986;8.894;2023-04-24T13:12:05;1.88;;;0.57;;
78443;SDS011;67739;52.986;8.894;2023-04-24T13:14:31;2.65;;;1.15;;
78443;SDS011;67739;52.986;8.894;2023-04-24T13:16:57;3.97;;;1.70;;
78443;SDS011;67739;52.986;8.894;2023-04-24T13:19:24;1.90;;;0.68;;
78443;SDS011;67739;52.986;8.894;2023-04-24T13:21:50;2.75;;;0.73;;
78443;SDS011;67739;52.986;8.894;2023-04-24T13:24:16;2.15;;;0.68;;
78443;SDS011;67739;52.986;8.894;2023-04-24T13:26:42;2.65;;;0.77;;
78443;SDS011;67739;52.986;8.894;2023-04-24T13:29:08;1.27;;;0.50;;
78443;SDS011;67739;52.986;8.894;2023-04-24T13:31:34;1.50;;;0.38;;
78443;SDS011;67739;52.986;8.894;2023-04-24T13:33:59;1.15;;;0.40;;
78443;SDS011;67739;52.986;8.894;2023-04-24T13:36:24;0.88;;;0.25;;
78443;SDS011;67739;52.986;8.894;2023-04-24T13:38:50;2.45;;;0.93;;
78443;SDS011;67739;52.986;8.894;2023-04-24T13:41:15;1.90;;;0.63;;
78443;SDS011;67739;52.986;8.894;2023-04-24T13:43:41;2.97;;;0.68;;
78443;SDS011;67739;52.986;8.894;2023-04-24T13:46:07;2.75;;;0.95;;
78443;SDS011;67739;52.986;8.894;2023-04-24T13:48:33;1.00;;;0.30;;
78443;SDS011;67739;52.986;8.894;2023-04-24T13:50:58;0.77;;;0.20;;
78443;SDS011;67739;52.986;8.894;2023-04-24T13:53:23;1.20;;;0.30;;
78443;SDS011;67739;52.986;8.894;2023-04-24T13:55:49;1.05;;;0.05;;
78443;SDS011;67739;52.986;8.894;2023-04-24T13:58:14;1.35;;;0.38;;
78443;SDS011;67739;52.986;8.894;2023-04-24T14:00:40;1.05;;;0.10;;
78443;SDS011;67739;52.986;8.894;2023-04-24T14:03:05;1.90;;;0.47;;
78443;SDS011;67739;52.986;8.894;2023-04-24T14:05:31;1.92;;;0.73;;
78443;SDS011;67739;52.986;8.894;2023-04-24T14:07:56;0.63;;;0.30;;
78443;SDS011;67739;52.986;8.894;2023-04-24T14:10:21;3.30;;;0.43;;
78443;SDS011;67739;52.986;8.894;2023-04-24T14:12:47;3.58;;;0.70;;
78443;SDS011;67739;52.986;8.894;2023-04-24T14:15:13;1.35;;;0.52;;
78443;SDS011;67739;52.986;8.894;2023-04-24T14:17:38;1.73;;;0.75;;
78443;SDS011;67739;52.986;8.894;2023-04-24T14:20:04;1.52;;;0.47;;
78443;SDS011;67739;52.986;8.894;2023-04-24T14:22:30;1.17;;;0.30;;
78443;SDS011;67739;52.986;8.894;2023-04-24T14:24:56;2.63;;;1.35;;
78443;SDS011;67739;52.986;8.894;2023-04-24T14:27:21;0.75;;;0.40;;
78443;SDS011;67739;52.986;8.894;2023-04-24T14:29:46;1.08;;;0.57;;
78443;SDS011;67739;52.986;8.894;2023-04-24T14:32:12;1.58;;;0.52;;
78443;SDS011;67739;52.986;8.894;2023-04-24T14:34:39;0.95;;;0.30;;
78443;SDS011;67739;52.986;8.894;2023-04-24T14:37:05;1.25;;;0.60;;
78443;SDS011;67739;52.986;8.894;2023-04-24T14:39:30;0.80;;;0.10;;
78443;SDS011;67739;52.986;8.894;2023-04-24T14:41:55;1.25;;;0.60;;
78443;SDS011;67739;52.986;8.894;2023-04-24T14:44:21;0.20;;;0.10;;
78443;SDS011;67739;52.986;8.894;2023-04-24T14:46:47;0.93;;;0.28;;
78443;SDS011;67739;52.986;8.894;2023-04-24T14:49:14;1.30;;;0.32;;
78443;SDS011;67739;52.986;8.894;2023-04-24T14:51:39;1.77;;;0.70;;
78443;SDS011;67739;52.986;8.894;2023-04-24T14:54:05;0.30;;;0.10;;
78443;SDS011;67739;52.986;8.894;2023-04-24T14:56:31;1.23;;;0.30;;
78443;SDS011;67739;52.986;8.894;2023-04-24T14:58:57;0.63;;;0.25;;
78443;SDS011;67739;52.986;8.894;2023-04-24T15:01:22;1.65;;;0.30;;
78443;SDS011;67739;52.986;8.894;2023-04-24T15:03:49;0.75;;;0.15;;
78443;SDS011;67739;52.986;8.894;2023-04-24T15:06:14;0.77;;;0.32;;
78443;SDS011;67739;52.986;8.894;2023-04-24T15:08:40;0.15;;;0.00;;
78443;SDS011;67739;52.986;8.894;2023-04-24T15:11:05;0.40;;;0.10;;
78443;SDS011;67739;52.986;8.894;2023-04-24T15:13:31;0.30;;;0.20;;
78443;SDS011;67739;52.986;8.894;2023-04-24T15:15:56;1.13;;;0.73;;
78443;SDS011;67739;52.986;8.894;2023-04-24T15:18:22;1.52;;;0.35;;
78443;SDS011;67739;52.986;8.894;2023-04-24T15:20:47;1.83;;;0.63;;
78443;SDS011;67739;52.986;8.894;2023-04-24T15:23:13;0.68;;;0.25;;
78443;SDS011;67739;52.986;8.894;2023-04-24T15:25:38;0.38;;;0.17;;
78443;SDS011;67739;52.986;8.894;2023-04-24T15:28:04;0.75;;;0.45;;
78443;SDS011;67739;52.986;8.894;2023-04-24T15:30:32;2.97;;;0.75;;
78443;SDS011;67739;52.986;8.894;2023-04-24T15:32:59;6.43;;;0.95;;
78443;SDS011;67739;52.986;8.894;2023-04-24T15:35:24;0.73;;;0.40;;
78443;SDS011;67739;52.986;8.894;2023-04-24T15:37:50;1.55;;;0.57;;
78443;SDS011;67739;52.986;8.894;2023-04-24T15:40:15;1.25;;;0.45;;
78443;SDS011;67739;52.986;8.894;2023-04-24T15:42:41;1.08;;;0.43;;
78443;SDS011;67739;52.986;8.894;2023-04-24T15:45:08;0.90;;;0.30;;
78443;SDS011;67739;52.986;8.894;2023-04-24T15:47:34;1.38;;;0.60;;
78443;SDS011;67739;52.986;8.894;2023-04-24T15:50:00;0.98;;;0.17;;
78443;SDS011;67739;52.986;8.894;2023-04-24T15:52:49;0.45;;;0.10;;
78443;SDS011;67739;52.986;8.894;2023-04-24T15:55:17;0.13;;;0.10;;
78443;SDS011;67739;52.986;8.894;2023-04-24T15:57:55;1.27;;;0.30;;
78443;SDS011;67739;52.986;8.894;2023-04-24T16:00:21;0.32;;;0.10;;
78443;SDS011;67739;52.986;8.894;2023-04-24T16:02:46;0.20;;;0.00;;
78443;SDS011;67739;52.986;8.894;2023-04-24T16:05:15;0.63;;;0.25;;
78443;SDS011;67739;52.986;8.894;2023-04-24T16:07:41;0.80;;;0.10;;
78443;SDS011;67739;52.986;8.894;2023-04-24T16:10:09;0.65;;;0.20;;
78443;SDS011;67739;52.986;8.894;2023-04-24T16:12:37;2.40;;;0.10;;
78443;SDS011;67739;52.986;8.894;2023-04-24T16:15:03;1.65;;;0.57;;
78443;SDS011;67739;52.986;8.894;2023-04-24T16:17:32;0.50;;;0.17;;
78443;SDS011;67739;52.986;8.894;2023-04-24T16:19:58;0.68;;;0.10;;
78443;SDS011;67739;52.986;8.894;2023-04-24T16:22:23;0.05;;;0.00;;
78443;SDS011;67739;52.986;8.894;2023-04-24T16:24:48;0.00;;;0.00;;
78443;SDS011;67739;52.986;8.894;2023-04-24T16:27:14;0.30;;;0.10;;
78443;SDS011;67739;52.986;8.894;2023-04-24T16:29:40;1.15;;;0.20;;
78443;SDS011;67739;52.986;8.894;2023-04-24T16:35:24;0.25;;;0.10;;
78443;SDS011;67739;52.986;8.894;2023-04-24T16:37:49;1.80;;;0.65;;
78443;SDS011;67739;52.986;8.894;2023-04-24T16:40:18;0.00;;;0.00;;
78443;SDS011;67739;52.986;8.894;2023-04-24T16:42:54;0.20;;;0.10;;
78443;SDS011;67739;52.986;8.894;2023-04-24T16:45:33;0.73;;;0.35;;
78443;SDS011;67739;52.986;8.894;2023-04-24T16:48:10;0.32;;;0.10;;
78443;SDS011;67739;52.986;8.894;2023-04-24T16:50:42;1.17;;;0.20;;
78443;SDS011;67739;52.986;8.894;2023-04-24T16:53:20;0.75;;;0.17;;
78443;SDS011;67739;52.986;8.894;2023-04-24T16:55:49;0.93;;;0.15;;
78443;SDS011;67739;52.986;8.894;2023-04-24T17:01:15;0.68;;;0.28;;
78443;SDS011;67739;52.986;8.894;2023-04-24T17:03:50;0.52;;;0.00;;
78443;SDS011;67739;52.986;8.894;2023-04-24T17:06:33;0.40;;;0.10;;
78443;SDS011;67739;52.986;8.894;2023-04-24T17:09:08;0.10;;;0.00;;
78443;SDS011;67739;52.986;8.894;2023-04-24T17:11:43;0.95;;;0.20;;
78443;SDS011;67739;52.986;8.894;2023-04-24T17:14:09;0.08;;;0.00;;
78443;SDS011;67739;52.986;8.894;2023-04-24T17:16:35;1.00;;;0.35;;
78443;SDS011;67739;52.986;8.894;2023-04-24T17:19:10;0.20;;;0.00;;
78443;SDS011;67739;52.986;8.894;2023-04-24T17:21:38;0.45;;;0.10;;
78443;SDS011;67739;52.986;8.894;2023-04-24T17:24:21;0.65;;;0.10;;
78443;SDS011;67739;52.986;8.894;2023-04-24T17:26:55;0.00;;;0.00;;
78443;SDS011;67739;52.986;8.894;2023-04-24T17:29:24;0.05;;;0.00;;
78443;SDS011;67739;52.986;8.894;2023-04-24T17:31:50;0.10;;;0.00;;
78443;SDS011;67739;52.986;8.894;2023-04-24T17:34:16;0.00;;;0.00;;
78443;SDS011;67739;52.986;8.894;2023-04-24T17:36:41;0.00;;;0.00;;
78443;SDS011;67739;52.986;8.894;2023-04-24T17:39:11;0.00;;;0.00;;
78443;SDS011;67739;52.986;8.894;2023-04-24T17:41:36;0.85;;;0.15;;
78443;SDS011;67739;52.986;8.894;2023-04-24T17:44:02;0.63;;;0.30;;
78443;SDS011;67739;52.986;8.894;2023-04-24T17:46:29;0.35;;;0.10;;
78443;SDS011;67739;52.986;8.894;2023-04-24T17:48:58;0.47;;;0.22;;
78443;SDS011;67739;52.986;8.894;2023-04-24T17:51:26;0.20;;;0.00;;
78443;SDS011;67739;52.986;8.894;2023-04-24T17:53:52;0.30;;;0.15;;
78443;SDS011;67739;52.986;8.894;2023-04-24T17:56:17;1.40;;;0.30;;
78443;SDS011;67739;52.986;8.894;2023-04-24T17:58:43;0.30;;;0.15;;
78443;SDS011;67739;52.986;8.894;2023-04-24T18:01:09;0.32;;;0.10;;
78443;SDS011;67739;52.986;8.894;2023-04-24T18:03:34;0.00;;;0.00;;
78443;SDS011;67739;52.986;8.894;2023-04-24T18:06:00;0.10;;;0.00;;
78443;SDS011;67739;52.986;8.894;2023-04-24T18:08:26;0.00;;;0.00;;
78443;SDS011;67739;52.986;8.894;2023-04-24T18:10:51;0.63;;;0.00;;
78443;SDS011;67739;52.986;8.894;2023-04-24T18:13:17;0.10;;;0.03;;
78443;SDS011;67739;52.986;8.894;2023-04-24T18:15:42;1.58;;;0.20;;
78443;SDS011;67739;52.986;8.894;2023-04-24T18:18:08;0.20;;;0.10;;
78443;SDS011;67739;52.986;8.894;2023-04-24T18:20:34;0.32;;;0.13;;
78443;SDS011;67739;52.986;8.894;2023-04-24T18:23:00;0.10;;;0.03;;
78443;SDS011;67739;52.986;8.894;2023-04-24T18:25:27;0.52;;;0.38;;
78443;SDS011;67739;52.986;8.894;2023-04-24T18:27:53;0.65;;;0.20;;
78443;SDS011;67739;52.986;8.894;2023-04-24T18:30:19;0.68;;;0.38;;
78443;SDS011;67739;52.986;8.894;2023-04-24T18:32:46;0.05;;;0.00;;
78443;SDS011;67739;52.986;8.894;2023-04-24T18:35:13;0.68;;;0.10;;
78443;SDS011;67739;52.986;8.894;2023-04-24T18:37:38;0.25;;;0.08;;
78443;SDS011;67739;52.986;8.894;2023-04-24T18:40:04;0.50;;;0.17;;
78443;SDS011;67739;52.986;8.894;2023-04-24T18:42:30;0.98;;;0.63;;
78443;SDS011;67739;52.986;8.894;2023-04-24T18:44:56;0.82;;;0.20;;
78443;SDS011;67739;52.986;8.894;2023-04-24T18:47:25;1.58;;;0.20;;
78443;SDS011;67739;52.986;8.894;2023-04-24T18:49:52;0.88;;;0.25;;
78443;SDS011;67739;52.986;8.894;2023-04-24T18:52:17;0.22;;;0.00;;
78443;SDS011;67739;52.986;8.894;2023-04-24T18:54:42;1.02;;;0.38;;
78443;SDS011;67739;52.986;8.894;2023-04-24T18:57:08;0.20;;;0.05;;
78443;SDS011;67739;52.986;8.894;2023-04-24T18:59:33;0.15;;;0.10;;
78443;SDS011;67739;52.986;8.894;2023-04-24T19:01:59;0.70;;;0.20;;
78443;SDS011;67739;52.986;8.894;2023-04-24T19:04:24;0.10;;;0.10;;
78443;SDS011;67739;52.986;8.894;2023-04-24T19:06:49;0.40;;;0.20;;
78443;SDS011;67739;52.986;8.894;2023-04-24T19:09:15;0.52;;;0.08;;
78443;SDS011;67739;52.986;8.894;2023-04-24T19:11:40;0.00;;;0.00;;